Time;durP1;ratioP1;P1;durP2;ratioP2;P2;SDS_P1;SDS_P2;PMS_P1;PMS_P2;Temp;Humidity;BMP_temperature;BMP_pressure;BME280_temperature;BME280_humidity;BME280_pressure;Samples;Min_cycle;Max_cycle;Signal;HPM_P1;HPM_P2
2023/03/26 00:01:48;;;;;;;7.10;1.60;;;5.90;99.90;;;;;;5092078;28;20423;-68
2023/03/26 00:04:20;;;;;;;6.83;2.47;;;6.00;99.90;;;;;;5092426;28;20180;-68
2023/03/26 00:06:47;;;;;;;10.20;2.40;;;6.00;99.90;;;;;;5092071;28;20466;-68
2023/03/26 00:09:15;;;;;;;3.73;2.00;;;6.00;99.90;;;;;;5092368;28;20960;-68
2023/03/26 00:11:41;;;;;;;2.67;1.30;;;6.00;99.90;;;;;;5091939;28;21012;-68
2023/03/26 00:14:08;;;;;;;4.80;2.00;;;6.10;99.90;;;;;;5092100;28;20501;-68
2023/03/26 00:16:34;;;;;;;5.23;1.90;;;6.10;99.90;;;;;;5091982;28;20744;-68
2023/03/26 00:19:01;;;;;;;3.27;1.33;;;6.10;99.90;;;;;;5092392;28;20417;-68
2023/03/26 00:21:29;;;;;;;3.10;1.40;;;6.20;99.90;;;;;;5091834;28;20445;-68
2023/03/26 00:24:06;;;;;;;2.63;1.07;;;6.20;99.90;;;;;;5092006;28;20422;-68
2023/03/26 00:26:34;;;;;;;6.50;0.87;;;6.20;99.90;;;;;;5092398;28;20464;-68
2023/03/26 00:29:02;;;;;;;1.63;0.80;;;6.30;99.90;;;;;;5091600;28;20410;-68
2023/03/26 00:31:27;;;;;;;2.80;1.20;;;6.30;99.90;;;;;;5091771;28;20537;-68
2023/03/26 00:33:54;;;;;;;2.47;1.07;;;6.30;99.90;;;;;;5092035;28;20510;-68
2023/03/26 00:36:21;;;;;;;2.07;1.20;;;6.30;99.90;;;;;;5090667;28;20229;-68
2023/03/26 00:38:47;;;;;;;8.43;2.00;;;6.30;99.90;;;;;;5091423;28;20415;-68
2023/03/26 00:41:25;;;;;;;5.17;1.80;;;6.30;99.90;;;;;;5091937;28;20902;-68
2023/03/26 00:43:55;;;;;;;3.60;1.60;;;6.20;99.90;;;;;;5090883;28;20180;-68
2023/03/26 00:46:21;;;;;;;3.40;1.30;;;6.20;99.90;;;;;;5091760;28;20925;-68
2023/03/26 00:48:47;;;;;;;4.17;0.90;;;6.20;99.90;;;;;;5091663;28;20509;-68
2023/03/26 00:51:15;;;;;;;3.47;1.13;;;6.20;99.90;;;;;;5091682;28;20558;-68
2023/03/26 00:53:43;;;;;;;3.90;1.70;;;6.20;99.90;;;;;;5088118;28;20558;-68
2023/03/26 00:56:09;;;;;;;2.53;1.10;;;6.20;99.90;;;;;;5091406;28;20994;-67
2023/03/26 00:58:35;;;;;;;3.20;1.00;;;6.20;99.90;;;;;;5091112;28;20439;-68
2023/03/26 01:01:04;;;;;;;2.90;0.80;;;6.20;99.90;;;;;;5091063;28;20429;-68
2023/03/26 01:03:33;;;;;;;2.37;0.87;;;6.20;99.90;;;;;;5091084;28;20427;-68
2023/03/26 01:06:09;;;;;;;5.20;1.47;;;6.20;99.90;;;;;;5091311;28;20703;-68
2023/03/26 01:08:45;;;;;;;6.03;1.33;;;6.20;99.90;;;;;;5090833;28;20881;-68
2023/03/26 01:11:25;;;;;;;2.57;1.10;;;6.30;99.90;;;;;;5090722;28;20464;-68
2023/03/26 01:14:08;;;;;;;4.60;1.23;;;6.30;99.90;;;;;;5090651;28;20418;-68
2023/03/26 01:16:38;;;;;;;1.40;0.67;;;6.30;99.90;;;;;;5091459;28;20848;-68
2023/03/26 01:19:11;;;;;;;1.43;0.80;;;6.30;99.90;;;;;;5091023;28;20494;-68
2023/03/26 01:21:38;;;;;;;9.47;1.57;;;6.30;99.90;;;;;;5090748;28;20495;-68
2023/03/26 01:24:06;;;;;;;3.70;0.90;;;6.30;99.90;;;;;;5090857;28;20406;-68
2023/03/26 01:26:38;;;;;;;4.13;0.80;;;6.30;99.90;;;;;;5083709;28;20416;-68
2023/03/26 01:29:07;;;;;;;2.47;1.00;;;6.30;99.90;;;;;;5090871;28;20891;-68
2023/03/26 01:31:47;;;;;;;1.33;0.57;;;6.30;99.90;;;;;;5090516;28;20560;-68
2023/03/26 01:34:36;;;;;;;1.73;1.07;;;6.30;99.90;;;;;;5091263;28;20923;-68
2023/03/26 01:37:26;;;;;;;2.20;1.13;;;6.30;99.90;;;;;;5080013;28;20471;-68
2023/03/26 01:40:14;;;;;;;4.97;1.40;;;6.30;99.90;;;;;;5086541;28;20406;-68
2023/03/26 01:42:46;;;;;;;3.30;0.90;;;6.30;99.90;;;;;;5089852;28;20925;-68
2023/03/26 01:45:25;;;;;;;2.70;0.70;;;6.30;99.90;;;;;;5091267;28;20890;-68
2023/03/26 01:47:52;;;;;;;2.60;1.20;;;6.30;99.90;;;;;;5093007;28;21079;-68
2023/03/26 01:50:17;;;;;;;3.30;0.90;;;6.30;99.90;;;;;;5090755;28;20444;-68
2023/03/26 01:52:43;;;;;;;2.77;0.70;;;6.20;99.90;;;;;;5090380;28;20918;-68
2023/03/26 01:55:10;;;;;;;2.50;0.90;;;6.20;99.90;;;;;;5090162;28;20366;-68
2023/03/26 01:57:46;;;;;;;6.37;1.10;;;6.20;99.90;;;;;;5090157;28;20180;-68
2023/03/26 02:00:19;;;;;;;2.57;1.00;;;6.10;99.90;;;;;;5088719;28;20418;-68
2023/03/26 02:02:45;;;;;;;2.23;0.97;;;6.10;99.90;;;;;;5089871;28;20421;-68
2023/03/26 02:05:25;;;;;;;2.33;0.80;;;6.10;99.90;;;;;;5090213;28;20450;-68
2023/03/26 02:08:01;;;;;;;4.43;1.40;;;6.10;99.90;;;;;;5090173;28;20716;-68
2023/03/26 02:10:29;;;;;;;5.27;0.90;;;6.10;99.90;;;;;;5082360;28;20483;-68
2023/03/26 02:12:56;;;;;;;5.07;0.90;;;6.10;99.90;;;;;;5089172;28;20447;-68
2023/03/26 02:15:23;;;;;;;8.53;0.90;;;6.10;99.90;;;;;;5089988;28;20438;-68
2023/03/26 02:17:51;;;;;;;6.73;1.23;;;6.10;99.90;;;;;;5089866;28;20411;-68
2023/03/26 02:20:18;;;;;;;1.50;0.73;;;6.10;99.90;;;;;;5090061;28;20449;-68
2023/03/26 02:22:46;;;;;;;5.77;1.60;;;6.10;99.90;;;;;;5090149;28;20466;-68
2023/03/26 02:25:20;;;;;;;2.27;0.80;;;6.10;99.90;;;;;;5093814;28;20415;-68
2023/03/26 02:27:46;;;;;;;2.60;1.00;;;6.10;99.90;;;;;;5089988;28;20989;-68
2023/03/26 02:30:24;;;;;;;2.20;1.13;;;6.10;99.90;;;;;;5093632;28;20406;-68
2023/03/26 02:32:52;;;;;;;1.40;0.87;;;6.10;99.90;;;;;;5093269;28;20421;-68
2023/03/26 02:35:18;;;;;;;5.47;1.50;;;6.10;99.90;;;;;;5093427;28;20468;-68
2023/03/26 02:37:45;;;;;;;2.57;1.10;;;6.10;99.90;;;;;;5093374;28;20422;-68
2023/03/26 02:40:12;;;;;;;1.90;1.00;;;6.10;99.90;;;;;;5093486;28;20414;-68
2023/03/26 02:42:39;;;;;;;17.27;1.27;;;6.00;99.90;;;;;;5092441;28;20426;-68
2023/03/26 02:45:06;;;;;;;1.50;0.97;;;6.00;99.90;;;;;;5093667;28;20430;-68
2023/03/26 02:47:32;;;;;;;5.07;1.03;;;6.00;99.90;;;;;;5093800;28;20464;-68
2023/03/26 02:49:58;;;;;;;6.40;1.70;;;6.00;99.90;;;;;;5094381;28;20414;-68
2023/03/26 02:52:24;;;;;;;1.47;0.70;;;6.00;99.90;;;;;;5093410;28;20469;-68
2023/03/26 02:54:49;;;;;;;3.33;1.53;;;6.00;99.90;;;;;;5093843;28;20712;-68
2023/03/26 02:57:15;;;;;;;3.30;1.20;;;6.00;99.90;;;;;;5093802;28;20663;-68
2023/03/26 02:59:41;;;;;;;2.03;0.87;;;6.00;99.90;;;;;;5093593;28;20639;-68
2023/03/26 03:02:06;;;;;;;2.00;0.83;;;6.00;99.90;;;;;;5093568;28;20184;-68
2023/03/26 03:04:32;;;;;;;1.77;0.93;;;6.00;99.90;;;;;;5093523;28;20632;-68
2023/03/26 03:06:58;;;;;;;4.30;1.23;;;6.10;99.90;;;;;;5093653;28;20222;-68
2023/03/26 03:09:24;;;;;;;7.10;1.33;;;6.10;99.90;;;;;;5093376;28;20179;-68
2023/03/26 03:11:51;;;;;;;3.33;1.20;;;6.00;99.90;;;;;;5093089;28;20523;-68
2023/03/26 03:14:17;;;;;;;9.90;1.60;;;6.00;99.90;;;;;;5092975;28;20683;-68
2023/03/26 03:16:43;;;;;;;5.80;2.20;;;6.00;99.90;;;;;;5093669;28;20790;-68
2023/03/26 03:19:09;;;;;;;3.93;0.90;;;6.00;99.90;;;;;;5093216;28;20492;-68
2023/03/26 03:21:34;;;;;;;1.40;0.73;;;6.00;99.90;;;;;;5092673;28;20180;-68
2023/03/26 03:24:00;;;;;;;1.83;0.80;;;6.00;99.90;;;;;;5093169;28;20645;-68
2023/03/26 03:26:28;;;;;;;3.20;1.00;;;6.00;99.90;;;;;;5093301;28;20176;-68
2023/03/26 03:28:56;;;;;;;4.80;1.63;;;5.90;99.90;;;;;;5092919;28;20360;-68
2023/03/26 03:31:23;;;;;;;5.20;1.70;;;6.00;99.90;;;;;;5093192;28;20458;-68
2023/03/26 03:33:50;;;;;;;6.40;1.27;;;6.00;99.90;;;;;;5092719;28;20464;-68
2023/03/26 03:36:18;;;;;;;3.10;1.20;;;6.00;99.90;;;;;;5092762;28;20430;-68
2023/03/26 03:38:44;;;;;;;3.70;1.77;;;5.90;99.90;;;;;;5092938;28;20944;-68
2023/03/26 03:41:10;;;;;;;5.23;1.30;;;5.90;99.90;;;;;;5093050;28;21055;-68
2023/03/26 03:43:36;;;;;;;3.57;0.77;;;5.90;99.90;;;;;;5092129;28;20946;-70
2023/03/26 03:46:02;;;;;;;4.33;1.30;;;5.90;99.90;;;;;;5093079;28;20449;-68
2023/03/26 03:48:27;;;;;;;1.60;0.73;;;5.90;99.90;;;;;;5092717;28;20415;-68
2023/03/26 03:50:54;;;;;;;8.00;1.37;;;5.90;99.90;;;;;;5092808;28;20492;-68
2023/03/26 03:53:24;;;;;;;12.53;0.93;;;5.90;99.90;;;;;;5092095;28;20598;-68
2023/03/26 03:55:54;;;;;;;18.73;1.23;;;5.90;99.90;;;;;;5093070;28;20460;-68
2023/03/26 03:58:21;;;;;;;5.73;1.00;;;5.90;99.90;;;;;;5092318;28;20497;-68
2023/03/26 04:00:49;;;;;;;2.50;1.20;;;5.90;99.90;;;;;;5093032;28;20769;-68
2023/03/26 04:03:15;;;;;;;3.10;0.70;;;5.90;99.90;;;;;;5092200;28;21075;-68
2023/03/26 04:05:42;;;;;;;2.60;1.03;;;5.80;99.90;;;;;;5095541;28;20786;-68
2023/03/26 04:08:08;;;;;;;2.70;1.00;;;5.80;99.90;;;;;;5092148;28;20891;-68
2023/03/26 04:10:33;;;;;;;2.07;0.70;;;5.90;99.90;;;;;;5092710;28;20414;-68
2023/03/26 04:12:59;;;;;;;1.60;0.70;;;5.90;99.90;;;;;;5091637;28;20617;-72
2023/03/26 04:15:25;;;;;;;3.10;1.33;;;5.90;99.90;;;;;;5092803;28;20187;-68
2023/03/26 04:17:50;;;;;;;8.27;1.47;;;5.90;99.90;;;;;;5094604;28;20172;-68
2023/03/26 04:20:18;;;;;;;4.90;1.57;;;5.80;99.90;;;;;;5093714;28;20263;-68
2023/03/26 04:22:44;;;;;;;2.70;1.03;;;5.80;99.90;;;;;;5088684;28;20200;-67
2023/03/26 04:25:11;;;;;;;2.80;0.70;;;5.70;99.90;;;;;;5087479;28;20427;-68
2023/03/26 04:27:40;;;;;;;1.93;1.17;;;5.70;99.90;;;;;;5091706;28;20440;-68
2023/03/26 04:30:07;;;;;;;7.33;1.40;;;5.70;99.90;;;;;;5088588;28;20425;-68
2023/03/26 04:32:33;;;;;;;2.57;1.10;;;5.70;99.90;;;;;;5090761;28;20454;-68
2023/03/26 04:35:02;;;;;;;1.67;0.77;;;5.70;99.90;;;;;;5091742;28;20409;-68
2023/03/26 04:37:38;;;;;;;8.00;1.03;;;5.70;99.90;;;;;;5088452;28;20422;-68
2023/03/26 04:40:10;;;;;;;2.40;1.00;;;5.60;99.90;;;;;;5091795;28;21141;-68
2023/03/26 04:42:40;;;;;;;2.30;1.03;;;5.70;99.90;;;;;;5091204;28;20497;-68
2023/03/26 04:45:07;;;;;;;3.60;1.10;;;5.70;99.90;;;;;;5091796;28;20430;-68
2023/03/26 04:47:35;;;;;;;4.30;0.70;;;5.70;99.90;;;;;;5086239;28;20422;-67
2023/03/26 04:50:02;;;;;;;4.93;1.13;;;5.70;99.90;;;;;;5091711;28;20413;-68
2023/03/26 04:52:28;;;;;;;5.23;1.27;;;5.70;99.90;;;;;;5091078;28;20477;-68
2023/03/26 04:54:54;;;;;;;2.63;0.83;;;5.80;99.90;;;;;;5091372;28;20414;-68
2023/03/26 04:57:34;;;;;;;3.23;1.37;;;5.80;99.90;;;;;;5091815;28;20472;-69
2023/03/26 05:00:15;;;;;;;1.20;0.60;;;5.80;99.90;;;;;;5091384;28;20406;-68
2023/03/26 05:02:41;;;;;;;1.70;1.10;;;5.80;99.90;;;;;;5091232;28;20532;-69
2023/03/26 05:05:08;;;;;;;4.70;0.70;;;5.80;99.90;;;;;;5090920;28;20460;-68
2023/03/26 05:07:33;;;;;;;4.07;1.20;;;5.80;99.90;;;;;;5090711;28;20464;-67
2023/03/26 05:10:02;;;;;;;3.70;1.10;;;5.90;99.90;;;;;;5091079;28;20610;-68
2023/03/26 05:12:28;;;;;;;3.67;1.30;;;5.80;99.90;;;;;;5085070;28;20187;-68
2023/03/26 05:14:53;;;;;;;7.20;1.40;;;5.80;99.90;;;;;;5090584;28;20442;-68
2023/03/26 05:17:20;;;;;;;4.43;1.30;;;5.90;99.90;;;;;;5090797;28;20850;-68
2023/03/26 05:19:46;;;;;;;1.70;0.70;;;6.00;99.90;;;;;;5090753;28;20180;-68
2023/03/26 05:22:12;;;;;;;7.63;1.67;;;6.00;99.90;;;;;;5089820;28;20448;-68
2023/03/26 05:24:37;;;;;;;2.13;0.80;;;6.10;99.90;;;;;;5090447;28;20565;-68
2023/03/26 05:27:03;;;;;;;1.40;0.70;;;6.20;99.90;;;;;;5090644;28;20188;-68
2023/03/26 05:29:28;;;;;;;17.13;1.53;;;6.20;99.90;;;;;;5090092;28;20575;-68
2023/03/26 05:31:54;;;;;;;3.90;0.90;;;6.30;99.90;;;;;;5090178;28;20196;-68
2023/03/26 05:34:23;;;;;;;5.87;1.00;;;6.30;99.90;;;;;;5090387;28;20183;-68
2023/03/26 05:36:49;;;;;;;6.60;1.87;;;6.30;99.90;;;;;;5090442;28;20188;-68
2023/03/26 05:39:15;;;;;;;12.40;2.93;;;6.30;99.90;;;;;;5090237;28;20498;-67
2023/03/26 05:41:40;;;;;;;7.30;2.40;;;6.30;99.90;;;;;;5089840;28;20931;-68
2023/03/26 05:44:06;;;;;;;6.97;1.27;;;6.30;99.90;;;;;;5090233;28;20184;-68
2023/03/26 05:46:31;;;;;;;15.27;1.67;;;6.30;99.90;;;;;;5092209;28;20673;-68
2023/03/26 05:48:57;;;;;;;5.67;2.47;;;6.30;99.90;;;;;;5090597;28;20272;-68
2023/03/26 05:51:23;;;;;;;7.30;1.20;;;6.40;99.90;;;;;;5090155;28;20196;-68
2023/03/26 05:53:48;;;;;;;15.50;1.63;;;6.40;99.90;;;;;;5089928;28;20629;-68
2023/03/26 05:56:14;;;;;;;2.37;1.20;;;6.50;99.90;;;;;;5090152;28;20177;-68
2023/03/26 05:58:40;;;;;;;2.73;0.80;;;6.60;99.90;;;;;;5092740;28;20187;-68
2023/03/26 06:01:15;;;;;;;3.67;0.70;;;6.50;99.90;;;;;;5094563;28;20209;-68
2023/03/26 06:03:41;;;;;;;1.10;0.50;;;6.50;99.90;;;;;;5094063;28;20417;-68
2023/03/26 06:06:16;;;;;;;2.07;0.80;;;6.50;99.90;;;;;;5093848;28;20414;-68
2023/03/26 06:08:45;;;;;;;4.30;1.17;;;6.60;99.90;;;;;;5092185;28;20410;-68
2023/03/26 06:11:11;;;;;;;3.87;1.00;;;6.60;99.90;;;;;;5093867;28;20466;-68
2023/03/26 06:13:38;;;;;;;1.60;1.00;;;6.60;99.90;;;;;;5093074;28;20411;-68
2023/03/26 06:16:05;;;;;;;2.33;1.17;;;6.60;99.90;;;;;;5093774;28;20422;-68
2023/03/26 06:18:30;;;;;;;3.10;0.90;;;6.60;99.90;;;;;;5094057;28;20429;-68
2023/03/26 06:20:56;;;;;;;1.90;0.90;;;6.70;99.90;;;;;;5093690;28;20418;-68
2023/03/26 06:23:22;;;;;;;6.57;1.47;;;6.70;99.90;;;;;;5092969;28;20268;-67
2023/03/26 06:25:48;;;;;;;1.87;0.90;;;6.80;99.90;;;;;;5093775;28;20234;-68
2023/03/26 06:28:14;;;;;;;4.40;1.40;;;6.80;99.90;;;;;;5093673;28;20184;-68
2023/03/26 06:30:40;;;;;;;7.10;0.80;;;6.90;99.90;;;;;;5093578;28;20422;-68
2023/03/26 06:33:06;;;;;;;5.40;1.27;;;6.90;99.90;;;;;;5093366;28;20419;-68
2023/03/26 06:35:31;;;;;;;3.10;0.93;;;6.90;99.90;;;;;;5093729;28;20235;-68
2023/03/26 06:37:58;;;;;;;1.57;0.90;;;7.00;99.90;;;;;;5093284;28;20205;-68
2023/03/26 06:40:24;;;;;;;4.40;1.47;;;7.00;99.90;;;;;;5093450;28;20177;-68
2023/03/26 06:42:50;;;;;;;5.73;1.20;;;6.90;99.90;;;;;;5075019;28;20997;-68
2023/03/26 06:45:15;;;;;;;6.20;1.33;;;6.90;99.90;;;;;;5093965;28;20422;-68
2023/03/26 06:47:41;;;;;;;3.03;1.10;;;6.90;99.90;;;;;;5095244;28;20185;-68
2023/03/26 06:50:07;;;;;;;4.37;0.87;;;6.90;99.90;;;;;;5093372;28;20310;-68
2023/03/26 06:52:33;;;;;;;4.23;0.93;;;6.90;99.90;;;;;;5092314;28;20188;-68
2023/03/26 06:54:59;;;;;;;2.83;1.00;;;6.90;99.90;;;;;;5092519;28;20800;-68
2023/03/26 06:57:24;;;;;;;1.40;0.73;;;6.90;99.90;;;;;;5084898;28;20183;-68
2023/03/26 06:59:50;;;;;;;3.83;1.33;;;6.80;99.90;;;;;;5092767;28;20635;-68
2023/03/26 07:02:16;;;;;;;4.80;1.17;;;6.80;99.90;;;;;;5092678;28;20585;-68
2023/03/26 07:04:41;;;;;;;5.77;0.87;;;6.80;99.90;;;;;;5092243;28;20181;-68
2023/03/26 07:07:07;;;;;;;2.07;0.90;;;6.70;99.90;;;;;;5092181;28;20179;-68
2023/03/26 07:09:32;;;;;;;3.30;0.70;;;6.70;99.90;;;;;;5091194;28;20619;-68
2023/03/26 07:11:58;;;;;;;2.60;0.87;;;6.70;99.90;;;;;;5092540;28;20735;-68
2023/03/26 07:14:26;;;;;;;3.80;0.90;;;6.70;99.90;;;;;;5092543;28;20531;-68
2023/03/26 07:16:52;;;;;;;2.17;0.80;;;6.60;99.90;;;;;;5092929;28;20501;-68
2023/03/26 07:19:18;;;;;;;3.33;1.07;;;6.60;99.90;;;;;;5092676;28;20419;-68
2023/03/26 07:21:45;;;;;;;3.20;1.47;;;6.50;99.90;;;;;;5091782;28;20219;-68
2023/03/26 07:24:12;;;;;;;8.50;1.90;;;6.50;99.90;;;;;;5092458;28;20542;-68
2023/03/26 07:26:56;;;;;;;2.07;1.00;;;6.40;99.90;;;;;;5092745;28;20422;-68
2023/03/26 07:29:25;;;;;;;4.27;0.70;;;6.30;99.90;;;;;;5092221;28;20418;-68
2023/03/26 07:32:13;;;;;;;2.77;1.10;;;6.30;99.90;;;;;;5092382;28;20541;-68
2023/03/26 07:35:00;;;;;;;3.40;1.30;;;6.30;99.90;;;;;;5086444;28;20868;-68
2023/03/26 07:38:10;;;;;;;5.70;2.50;;;6.30;99.90;;;;;;5091770;28;20418;-68
2023/03/26 07:41:11;;;;;;;4.73;2.17;;;6.10;99.90;;;;;;5090951;28;21067;-68
2023/03/26 07:43:49;;;;;;;6.47;2.17;;;6.20;99.90;;;;;;5077235;28;20438;-68
2023/03/26 07:46:16;;;;;;;2.97;1.80;;;6.10;99.90;;;;;;5094169;28;20429;-68
2023/03/26 07:48:46;;;;;;;2.50;1.10;;;6.10;99.90;;;;;;5091829;28;20934;-68
2023/03/26 07:51:13;;;;;;;6.73;1.50;;;6.10;99.90;;;;;;5092276;28;21277;-68
2023/03/26 07:53:39;;;;;;;2.17;1.20;;;6.20;99.90;;;;;;5091487;28;20429;-68
2023/03/26 07:56:14;;;;;;;3.33;1.63;;;6.20;99.90;;;;;;5091960;28;20415;-68
2023/03/26 07:59:03;;;;;;;6.43;2.13;;;6.20;99.90;;;;;;5089390;28;20420;-68
2023/03/26 08:02:19;;;;;;;3.17;1.30;;;6.20;99.90;;;;;;5089166;28;20417;-69
2023/03/26 08:04:58;;;;;;;2.80;1.27;;;6.20;99.90;;;;;;5089558;28;20841;-68
2023/03/26 08:08:03;;;;;;;6.33;1.00;;;6.20;99.90;;;;;;5091607;28;20563;-68
2023/03/26 08:10:50;;;;;;;2.97;1.50;;;6.20;99.90;;;;;;5084188;28;20411;-68
2023/03/26 08:13:22;;;;;;;2.40;1.40;;;6.20;99.90;;;;;;5089730;28;20744;-68
2023/03/26 08:16:09;;;;;;;2.03;1.00;;;6.30;99.90;;;;;;5091802;28;20897;-69
2023/03/26 08:18:45;;;;;;;1.53;1.07;;;6.30;99.90;;;;;;5084858;28;20476;-68
2023/03/26 08:21:22;;;;;;;3.80;1.27;;;6.40;99.90;;;;;;5091401;28;20398;-69
2023/03/26 08:23:54;;;;;;;4.43;1.87;;;6.40;99.90;;;;;;5091169;28;20444;-68
2023/03/26 08:26:54;;;;;;;9.90;1.30;;;6.40;99.90;;;;;;5091249;28;20437;-68
2023/03/26 08:29:22;;;;;;;4.23;1.07;;;6.40;99.90;;;;;;5090234;28;20415;-68
2023/03/26 08:31:50;;;;;;;8.40;1.90;;;6.40;99.90;;;;;;5090871;28;20470;-68
2023/03/26 08:34:15;;;;;;;9.47;1.67;;;6.40;99.90;;;;;;5091158;28;20463;-68
2023/03/26 08:36:41;;;;;;;4.20;1.47;;;6.40;99.90;;;;;;5091008;28;20423;-68
2023/03/26 08:39:07;;;;;;;2.47;1.57;;;6.60;99.90;;;;;;5090815;28;20270;-68
2023/03/26 08:41:48;;;;;;;3.33;1.60;;;6.60;99.90;;;;;;5090779;28;20430;-68
2023/03/26 08:44:50;;;;;;;3.33;1.20;;;6.80;99.90;;;;;;5090775;28;20949;-68
2023/03/26 08:48:07;;;;;;;1.40;0.70;;;6.90;99.90;;;;;;5092256;28;20447;-68
2023/03/26 08:51:03;;;;;;;2.60;1.00;;;6.80;99.90;;;;;;5057546;28;20418;-68
2023/03/26 08:53:56;;;;;;;6.63;1.90;;;6.90;99.90;;;;;;5089894;28;20781;-68
2023/03/26 08:56:52;;;;;;;2.07;1.03;;;7.00;99.90;;;;;;5091573;28;20415;-68
2023/03/26 08:59:27;;;;;;;2.03;0.93;;;7.20;99.90;;;;;;5091521;28;20406;-68
2023/03/26 09:02:30;;;;;;;1.53;0.87;;;7.30;99.90;;;;;;5089224;28;20398;-69
2023/03/26 09:05:25;;;;;;;1.70;1.20;;;7.40;99.90;;;;;;5090982;28;20457;-70
2023/03/26 09:07:59;;;;;;;1.50;0.70;;;7.60;99.90;;;;;;5088006;28;20777;-70
2023/03/26 09:11:02;;;;;;;1.30;0.80;;;8.10;99.90;;;;;;5083740;28;20412;-69
2023/03/26 09:13:49;;;;;;;2.80;1.10;;;8.60;99.90;;;;;;5089904;28;20487;-68
2023/03/26 09:16:42;;;;;;;3.97;0.80;;;8.70;99.90;;;;;;5090651;28;20457;-69
2023/03/26 09:19:16;;;;;;;2.03;0.83;;;8.70;99.90;;;;;;5090715;28;20418;-69
2023/03/26 09:22:00;;;;;;;10.27;1.23;;;8.50;99.90;;;;;;5084150;28;20430;-70
2023/03/26 09:24:46;;;;;;;3.43;1.00;;;8.50;99.90;;;;;;5089612;28;20403;-69
2023/03/26 09:27:36;;;;;;;1.20;0.60;;;8.90;99.90;;;;;;5090557;28;20451;-68
2023/03/26 09:30:30;;;;;;;1.80;0.77;;;9.30;99.90;;;;;;5087623;28;20437;-71
2023/03/26 09:33:20;;;;;;;1.80;0.70;;;9.80;99.90;;;;;;5090962;28;20545;-69
2023/03/26 09:36:05;;;;;;;1.97;0.70;;;10.20;99.90;;;;;;5093947;28;20414;-69
2023/03/26 09:38:43;;;;;;;3.23;1.17;;;10.10;99.90;;;;;;5089382;28;20503;-69
2023/03/26 09:41:17;;;;;;;2.20;0.97;;;10.40;99.90;;;;;;5094544;28;20410;-69
2023/03/26 09:43:45;;;;;;;1.50;0.63;;;10.60;99.90;;;;;;5093640;28;20891;-69
2023/03/26 09:46:39;;;;;;;1.30;0.70;;;11.00;99.90;;;;;;5096348;28;20487;-68
2023/03/26 09:49:36;;;;;;;1.43;0.60;;;11.30;99.90;;;;;;5096123;28;20414;-66
2023/03/26 09:52:21;;;;;;;1.73;0.80;;;11.00;99.90;;;;;;5069604;28;20493;-65
2023/03/26 09:54:56;;;;;;;2.80;0.90;;;11.00;99.90;;;;;;5094259;28;20854;-65
2023/03/26 09:58:00;;;;;;;1.37;0.60;;;10.80;99.90;;;;;;5094302;28;20477;-65
2023/03/26 10:00:55;;;;;;;1.70;0.90;;;10.40;99.90;;;;;;5093626;28;20459;-65
2023/03/26 10:03:42;;;;;;;2.17;0.90;;;10.20;99.90;;;;;;5079593;28;20422;-65
2023/03/26 10:06:21;;;;;;;1.77;0.70;;;10.10;99.90;;;;;;5094222;28;20479;-65
2023/03/26 10:09:01;;;;;;;1.57;1.07;;;10.10;99.90;;;;;;5092987;28;20410;-65
2023/03/26 10:12:21;;;;;;;2.83;0.70;;;10.20;99.90;;;;;;5089523;28;20953;-65
2023/03/26 10:15:08;;;;;;;1.50;0.80;;;10.30;99.90;;;;;;5038101;28;20437;-65
2023/03/26 10:17:57;;;;;;;1.40;0.73;;;10.40;99.90;;;;;;5089028;28;20410;-65
2023/03/26 10:20:44;;;;;;;7.07;1.30;;;10.70;99.90;;;;;;5093567;28;20413;-65
2023/03/26 10:23:25;;;;;;;4.83;1.37;;;10.90;99.90;;;;;;5091817;28;20433;-66
2023/03/26 10:26:23;;;;;;;6.60;1.50;;;10.90;99.90;;;;;;5087713;28;20422;-66
2023/03/26 10:28:58;;;;;;;2.03;0.70;;;10.90;99.90;;;;;;5085796;28;20513;-65
2023/03/26 10:31:24;;;;;;;4.47;1.33;;;10.60;99.90;;;;;;5091688;28;20450;-66
2023/03/26 10:34:24;;;;;;;7.63;0.90;;;10.70;99.90;;;;;;5085113;28;20422;-66
2023/03/26 10:37:13;;;;;;;1.63;0.87;;;10.70;99.90;;;;;;5087089;28;20670;-65
2023/03/26 10:40:04;;;;;;;2.47;1.13;;;10.80;99.90;;;;;;5085964;28;20434;-65
2023/03/26 10:42:39;;;;;;;3.07;1.03;;;10.90;99.90;;;;;;5091871;28;20727;-66
2023/03/26 10:45:29;;;;;;;2.20;0.67;;;11.00;99.90;;;;;;5093190;28;20415;-66
2023/03/26 10:48:15;;;;;;;2.27;0.70;;;11.00;99.90;;;;;;5091257;28;20406;-67
2023/03/26 10:51:15;;;;;;;1.20;0.50;;;10.70;99.90;;;;;;5092603;28;20421;-66
2023/03/26 10:53:48;;;;;;;5.07;0.93;;;10.60;99.90;;;;;;5092322;28;20418;-65
2023/03/26 10:56:37;;;;;;;1.73;0.60;;;10.40;99.90;;;;;;5091678;28;20402;-65
2023/03/26 10:59:10;;;;;;;1.20;0.50;;;10.30;99.90;;;;;;5092759;28;20415;-65
2023/03/26 11:02:13;;;;;;;2.13;1.03;;;10.40;99.90;;;;;;5092738;28;20918;-65
2023/03/26 11:04:53;;;;;;;1.63;0.63;;;10.70;99.90;;;;;;5089989;28;21129;-65
2023/03/26 11:07:40;;;;;;;1.70;0.73;;;10.80;99.90;;;;;;5092736;28;20413;-65
2023/03/26 11:10:10;;;;;;;2.67;0.57;;;11.00;99.90;;;;;;5091457;28;20417;-66
2023/03/26 11:12:39;;;;;;;1.50;0.60;;;11.10;99.90;;;;;;5091500;28;20862;-65
2023/03/26 11:15:13;;;;;;;1.33;0.60;;;11.00;99.90;;;;;;5092521;28;20835;-65
2023/03/26 11:17:59;;;;;;;2.50;0.80;;;11.10;99.90;;;;;;5092392;28;20502;-64
2023/03/26 11:20:37;;;;;;;2.70;0.70;;;11.30;99.90;;;;;;5086623;28;20414;-65
2023/03/26 11:23:21;;;;;;;1.30;0.47;;;11.40;99.10;;;;;;5089628;28;20441;-65
2023/03/26 11:26:06;;;;;;;2.17;0.77;;;11.30;98.80;;;;;;5092422;28;20411;-65
2023/03/26 11:28:56;;;;;;;1.20;0.53;;;11.40;99.10;;;;;;5091107;28;20418;-65
2023/03/26 11:32:29;;;;;;;1.30;0.50;;;11.50;99.80;;;;;;5092094;28;20462;-65
2023/03/26 11:35:17;;;;;;;1.60;0.73;;;11.50;99.00;;;;;;5029978;28;20535;-66
2023/03/26 11:37:49;;;;;;;1.60;0.63;;;11.40;96.20;;;;;;5028102;28;20970;-66
2023/03/26 11:40:29;;;;;;;1.43;0.70;;;11.50;96.50;;;;;;5070532;28;20426;-66
2023/03/26 11:43:00;;;;;;;1.90;0.70;;;11.80;96.10;;;;;;5087140;28;20406;-65
2023/03/26 11:45:30;;;;;;;2.43;0.83;;;12.10;94.30;;;;;;5091642;28;20410;-65
2023/03/26 11:48:08;;;;;;;1.17;0.40;;;12.30;94.80;;;;;;5092113;28;20406;-65
2023/03/26 11:50:39;;;;;;;1.20;0.50;;;12.30;94.20;;;;;;5089811;28;20410;-66
2023/03/26 11:53:18;;;;;;;3.70;0.80;;;12.60;93.20;;;;;;5090703;28;21052;-66
2023/03/26 11:56:03;;;;;;;1.43;0.60;;;12.70;92.70;;;;;;5086572;28;20416;-65
2023/03/26 11:58:42;;;;;;;4.03;0.50;;;12.70;91.20;;;;;;5091287;28;20438;-65
2023/03/26 12:01:31;;;;;;;1.30;0.60;;;12.40;92.60;;;;;;5090910;28;20467;-66
2023/03/26 12:04:18;;;;;;;1.40;0.70;;;12.50;92.20;;;;;;5069515;28;20436;-66
2023/03/26 12:06:52;;;;;;;3.00;0.70;;;12.80;90.80;;;;;;5089752;28;20915;-65
2023/03/26 12:09:18;;;;;;;2.70;0.70;;;13.00;90.00;;;;;;5090937;28;20472;-65
2023/03/26 12:11:46;;;;;;;1.60;0.70;;;13.10;90.30;;;;;;5089740;28;20477;-65
2023/03/26 12:14:22;;;;;;;1.63;0.77;;;13.20;89.00;;;;;;5090274;28;20494;-65
2023/03/26 12:17:10;;;;;;;1.20;0.50;;;12.80;88.40;;;;;;5087412;28;20414;-65
2023/03/26 12:19:44;;;;;;;5.60;0.70;;;12.60;90.70;;;;;;5088027;28;20438;-65
2023/03/26 12:22:29;;;;;;;6.40;0.97;;;12.70;91.00;;;;;;5090879;28;20438;-65
2023/03/26 12:25:15;;;;;;;3.20;0.80;;;12.70;90.50;;;;;;5087284;28;20414;-65
2023/03/26 12:27:48;;;;;;;1.70;0.47;;;12.60;89.90;;;;;;5087100;28;20429;-65
2023/03/26 12:30:24;;;;;;;2.70;0.63;;;12.30;90.30;;;;;;5091472;28;20428;-64
2023/03/26 12:32:52;;;;;;;2.13;0.70;;;12.40;90.50;;;;;;5090418;28;20458;-65
2023/03/26 12:35:25;;;;;;;2.80;0.63;;;12.70;91.20;;;;;;5091031;28;20978;-65
2023/03/26 12:37:52;;;;;;;1.40;0.60;;;12.80;88.50;;;;;;5086062;28;20410;-65
2023/03/26 12:40:28;;;;;;;2.50;0.70;;;12.50;87.50;;;;;;5090960;28;21250;-68
2023/03/26 12:43:00;;;;;;;1.40;0.70;;;12.60;90.00;;;;;;5089392;28;20410;-68
2023/03/26 12:45:35;;;;;;;1.50;0.50;;;12.70;86.20;;;;;;5089818;28;20425;-71
2023/03/26 12:48:01;;;;;;;2.20;0.80;;;13.00;89.20;;;;;;5092461;28;20421;-71
2023/03/26 12:51:10;;;;;;;2.07;0.83;;;13.30;87.40;;;;;;5090984;28;20421;-69
2023/03/26 12:53:57;;;;;;;1.93;0.50;;;13.50;86.90;;;;;;5055555;28;20211;-69
2023/03/26 12:56:51;;;;;;;1.30;0.50;;;13.80;85.50;;;;;;5090634;28;20437;-68
2023/03/26 12:59:35;;;;;;;2.03;0.77;;;13.90;80.90;;;;;;5044664;28;20513;-69
2023/03/26 13:02:17;;;;;;;1.70;0.60;;;13.70;82.60;;;;;;5088495;28;20441;-68
2023/03/26 13:05:03;;;;;;;1.77;0.60;;;13.80;80.70;;;;;;5090719;28;20411;-69
2023/03/26 13:07:57;;;;;;;1.20;0.50;;;13.90;82.30;;;;;;5084230;28;20528;-68
2023/03/26 13:10:39;;;;;;;2.37;0.80;;;14.20;78.20;;;;;;5090681;28;20410;-69
2023/03/26 13:13:26;;;;;;;5.53;0.73;;;14.10;77.10;;;;;;5089427;28;20461;-72
2023/03/26 13:16:03;;;;;;;4.50;0.70;;;14.20;77.00;;;;;;5090723;28;20897;-70
2023/03/26 13:19:14;;;;;;;3.50;0.70;;;14.70;78.30;;;;;;5090353;28;20831;-70
2023/03/26 13:22:04;;;;;;;2.60;0.77;;;15.00;74.80;;;;;;5080462;28;20449;-70
2023/03/26 13:24:54;;;;;;;4.83;1.00;;;14.50;76.10;;;;;;5085477;28;20465;-71
2023/03/26 13:27:51;;;;;;;3.30;0.83;;;14.20;75.10;;;;;;5090475;28;20406;-71
2023/03/26 13:30:48;;;;;;;1.30;0.60;;;13.70;74.60;;;;;;5089417;28;20430;-70
2023/03/26 13:33:37;;;;;;;2.17;0.80;;;13.70;79.00;;;;;;4999499;28;20431;-70